sensor_id;sensor_type;location;lat;lon;timestamp;pressure;altitude;pressure_sealevel;temperature;humidity
76124;BME280;65173;48.066;20.976;2022-12-18T00:00:57;101791.47;;;-0.56;78.29
76124;BME280;65173;48.066;20.976;2022-12-18T00:04:02;101794.88;;;-0.56;77.79
76124;BME280;65173;48.066;20.976;2022-12-18T00:07:09;101792.06;;;-0.54;77.39
76124;BME280;65173;48.066;20.976;2022-12-18T00:10:12;101803.13;;;-0.52;76.41
76124;BME280;65173;48.066;20.976;2022-12-18T00:13:17;101803.94;;;-0.45;76.70
76124;BME280;65173;48.066;20.976;2022-12-18T00:16:21;101821.44;;;-0.52;76.44
76124;BME280;65173;48.066;20.976;2022-12-18T00:19:25;101816.84;;;-0.57;76.47
76124;BME280;65173;48.066;20.976;2022-12-18T00:22:27;101826.09;;;-0.61;75.88
76124;BME280;65173;48.066;20.976;2022-12-18T00:25:33;101827.72;;;-0.60;76.92
76124;BME280;65173;48.066;20.976;2022-12-18T00:28:36;101844.63;;;-0.56;77.22
76124;BME280;65173;48.066;20.976;2022-12-18T00:31:39;101841.81;;;-0.54;77.46
76124;BME280;65173;48.066;20.976;2022-12-18T00:34:46;101847.88;;;-0.54;77.66
76124;BME280;65173;48.066;20.976;2022-12-18T00:37:50;101858.72;;;-0.57;77.91
76124;BME280;65173;48.066;20.976;2022-12-18T00:40:52;101868.19;;;-0.56;78.26
76124;BME280;65173;48.066;20.976;2022-12-18T00:43:55;101866.97;;;-0.53;77.43
76124;BME280;65173;48.066;20.976;2022-12-18T00:46:58;101875.25;;;-0.56;77.77
76124;BME280;65173;48.066;20.976;2022-12-18T00:50:00;101880.69;;;-0.58;78.26
76124;BME280;65173;48.066;20.976;2022-12-18T00:53:03;101881.69;;;-0.59;78.85
76124;BME280;65173;48.066;20.976;2022-12-18T00:56:06;101886.13;;;-0.59;79.63
76124;BME280;65173;48.066;20.976;2022-12-18T00:59:09;101885.31;;;-0.53;79.64
76124;BME280;65173;48.066;20.976;2022-12-18T01:02:13;101894.78;;;-0.46;80.21
76124;BME280;65173;48.066;20.976;2022-12-18T01:05:18;101904.66;;;-0.48;80.01
76124;BME280;65173;48.066;20.976;2022-12-18T01:08:20;101902.63;;;-0.52;81.23
76124;BME280;65173;48.066;20.976;2022-12-18T01:11:23;101904.88;;;-0.56;82.46
76124;BME280;65173;48.066;20.976;2022-12-18T01:14:26;101905.06;;;-0.51;82.03
76124;BME280;65173;48.066;20.976;2022-12-18T01:17:29;101908.28;;;-0.55;80.38
76124;BME280;65173;48.066;20.976;2022-12-18T01:20:32;101905.25;;;-0.52;80.73
76124;BME280;65173;48.066;20.976;2022-12-18T01:23:35;101912.72;;;-0.49;81.03
76124;BME280;65173;48.066;20.976;2022-12-18T01:26:38;101913.72;;;-0.50;81.14
76124;BME280;65173;48.066;20.976;2022-12-18T01:29:41;101916.94;;;-0.48;81.14
76124;BME280;65173;48.066;20.976;2022-12-18T01:32:44;101921.56;;;-0.50;81.30
76124;BME280;65173;48.066;20.976;2022-12-18T01:35:47;101918.75;;;-0.49;81.67
76124;BME280;65173;48.066;20.976;2022-12-18T01:38:51;101916.94;;;-0.61;81.81
76124;BME280;65173;48.066;20.976;2022-12-18T01:41:54;101924.94;;;-0.70;81.46
76124;BME280;65173;48.066;20.976;2022-12-18T01:48:18;101937.44;;;-0.72;82.13
76124;BME280;65173;48.066;20.976;2022-12-18T01:51:21;101934.00;;;-0.79;82.45
76124;BME280;65173;48.066;20.976;2022-12-18T01:54:24;101938.84;;;-0.69;82.27
76124;BME280;65173;48.066;20.976;2022-12-18T01:57:28;101939.47;;;-0.74;81.51
76124;BME280;65173;48.066;20.976;2022-12-18T02:00:31;101939.63;;;-0.82;81.42
76124;BME280;65173;48.066;20.976;2022-12-18T02:03:34;101940.81;;;-0.84;81.52
76124;BME280;65173;48.066;20.976;2022-12-18T02:06:40;101946.63;;;-0.89;82.42
76124;BME280;65173;48.066;20.976;2022-12-18T02:09:50;101946.63;;;-0.95;81.66
76124;BME280;65173;48.066;20.976;2022-12-18T02:13:14;101957.72;;;-0.93;81.14
76124;BME280;65173;48.066;20.976;2022-12-18T02:16:44;101962.53;;;-0.97;80.75
76124;BME280;65173;48.066;20.976;2022-12-18T02:26:40;101977.56;;;-1.06;81.69
76124;BME280;65173;48.066;20.976;2022-12-18T02:29:55;101979.75;;;-1.16;82.03
76124;BME280;65173;48.066;20.976;2022-12-18T02:33:05;101984.75;;;-1.21;82.36
76124;BME280;65173;48.066;20.976;2022-12-18T02:36:10;101986.91;;;-1.24;83.79
76124;BME280;65173;48.066;20.976;2022-12-18T02:39:17;101991.34;;;-1.25;83.65
76124;BME280;65173;48.066;20.976;2022-12-18T02:42:32;101997.38;;;-1.24;84.06
76124;BME280;65173;48.066;20.976;2022-12-18T02:45:46;101999.28;;;-1.46;85.12
76124;BME280;65173;48.066;20.976;2022-12-18T02:48:50;102012.31;;;-1.53;85.22
76124;BME280;65173;48.066;20.976;2022-12-18T02:55:43;102022.22;;;-1.42;84.96
76124;BME280;65173;48.066;20.976;2022-12-18T02:58:59;102025.03;;;-1.43;85.17
76124;BME280;65173;48.066;20.976;2022-12-18T03:02:23;102020.41;;;-1.41;83.82
76124;BME280;65173;48.066;20.976;2022-12-18T03:05:33;102024.63;;;-1.47;84.18
76124;BME280;65173;48.066;20.976;2022-12-18T03:08:42;102035.69;;;-1.45;85.48
76124;BME280;65173;48.066;20.976;2022-12-18T03:11:51;102041.69;;;-1.51;85.70
76124;BME280;65173;48.066;20.976;2022-12-18T03:15:28;102048.38;;;-1.42;85.28
76124;BME280;65173;48.066;20.976;2022-12-18T03:18:55;102049.00;;;-1.40;85.20
76124;BME280;65173;48.066;20.976;2022-12-18T03:22:02;102041.97;;;-1.67;86.10
76124;BME280;65173;48.066;20.976;2022-12-18T03:25:16;102045.66;;;-1.55;86.68
76124;BME280;65173;48.066;20.976;2022-12-18T03:28:22;102059.66;;;-1.41;86.51
76124;BME280;65173;48.066;20.976;2022-12-18T03:31:32;102049.53;;;-1.51;85.30
76124;BME280;65173;48.066;20.976;2022-12-18T03:34:40;102065.41;;;-1.52;85.71
76124;BME280;65173;48.066;20.976;2022-12-18T03:37:47;102063.25;;;-1.70;86.85
76124;BME280;65173;48.066;20.976;2022-12-18T03:44:14;102071.78;;;-1.83;87.26
76124;BME280;65173;48.066;20.976;2022-12-18T03:47:27;102071.34;;;-1.86;87.46
76124;BME280;65173;48.066;20.976;2022-12-18T03:50:59;102079.81;;;-1.84;87.57
76124;BME280;65173;48.066;20.976;2022-12-18T03:54:05;102089.09;;;-1.96;87.19
76124;BME280;65173;48.066;20.976;2022-12-18T03:57:21;102089.78;;;-2.09;87.08
76124;BME280;65173;48.066;20.976;2022-12-18T04:00:28;102097.81;;;-2.11;87.21
76124;BME280;65173;48.066;20.976;2022-12-18T04:03:41;102101.00;;;-2.15;88.03
76124;BME280;65173;48.066;20.976;2022-12-18T04:06:47;102111.00;;;-2.19;87.66
76124;BME280;65173;48.066;20.976;2022-12-18T04:09:56;102117.91;;;-2.26;87.45
76124;BME280;65173;48.066;20.976;2022-12-18T04:12:59;102115.22;;;-2.18;87.65
76124;BME280;65173;48.066;20.976;2022-12-18T04:16:02;102123.06;;;-2.32;87.64
76124;BME280;65173;48.066;20.976;2022-12-18T04:19:06;102122.53;;;-2.42;87.69
76124;BME280;65173;48.066;20.976;2022-12-18T04:22:14;102116.97;;;-2.54;88.19
76124;BME280;65173;48.066;20.976;2022-12-18T04:25:21;102129.41;;;-2.56;89.01
76124;BME280;65173;48.066;20.976;2022-12-18T04:28:41;102138.41;;;-2.59;88.56
76124;BME280;65173;48.066;20.976;2022-12-18T04:31:44;102140.72;;;-2.64;88.81
76124;BME280;65173;48.066;20.976;2022-12-18T04:34:46;102147.03;;;-2.73;89.02
76124;BME280;65173;48.066;20.976;2022-12-18T04:37:52;102138.41;;;-2.73;89.72
76124;BME280;65173;48.066;20.976;2022-12-18T04:40:56;102150.28;;;-2.71;88.67
76124;BME280;65173;48.066;20.976;2022-12-18T04:44:01;102150.00;;;-2.61;88.22
76124;BME280;65173;48.066;20.976;2022-12-18T04:47:04;102154.88;;;-2.58;88.36
76124;BME280;65173;48.066;20.976;2022-12-18T04:50:07;102149.00;;;-2.60;88.88
76124;BME280;65173;48.066;20.976;2022-12-18T04:53:09;102157.94;;;-2.69;88.77
76124;BME280;65173;48.066;20.976;2022-12-18T04:56:14;102166.00;;;-2.79;89.77
76124;BME280;65173;48.066;20.976;2022-12-18T04:59:16;102172.56;;;-2.68;89.28
76124;BME280;65173;48.066;20.976;2022-12-18T05:02:19;102169.97;;;-2.68;89.52
76124;BME280;65173;48.066;20.976;2022-12-18T05:05:22;102170.88;;;-2.76;89.48
76124;BME280;65173;48.066;20.976;2022-12-18T05:08:25;102193.09;;;-2.65;89.45
76124;BME280;65173;48.066;20.976;2022-12-18T05:11:28;102192.91;;;-2.64;89.86
76124;BME280;65173;48.066;20.976;2022-12-18T05:14:31;102195.06;;;-2.67;90.70
76124;BME280;65173;48.066;20.976;2022-12-18T05:17:33;102207.94;;;-2.66;90.81
76124;BME280;65173;48.066;20.976;2022-12-18T05:20:36;102212.19;;;-2.65;90.82
76124;BME280;65173;48.066;20.976;2022-12-18T05:23:39;102214.38;;;-2.54;90.40
76124;BME280;65173;48.066;20.976;2022-12-18T05:26:42;102226.69;;;-2.48;90.36
76124;BME280;65173;48.066;20.976;2022-12-18T05:29:45;102218.25;;;-2.35;89.90
76124;BME280;65173;48.066;20.976;2022-12-18T05:32:48;102224.72;;;-2.31;89.80
76124;BME280;65173;48.066;20.976;2022-12-18T05:35:55;102216.16;;;-2.25;89.36
76124;BME280;65173;48.066;20.976;2022-12-18T05:38:58;102223.72;;;-2.30;89.44
76124;BME280;65173;48.066;20.976;2022-12-18T05:42:02;102223.66;;;-2.22;89.15
76124;BME280;65173;48.066;20.976;2022-12-18T05:45:05;102238.69;;;-2.24;88.89
76124;BME280;65173;48.066;20.976;2022-12-18T05:48:08;102236.59;;;-2.14;88.71
76124;BME280;65173;48.066;20.976;2022-12-18T05:51:16;102238.94;;;-1.89;87.28
76124;BME280;65173;48.066;20.976;2022-12-18T05:54:19;102242.00;;;-1.86;86.80
76124;BME280;65173;48.066;20.976;2022-12-18T05:57:21;102251.03;;;-2.03;87.42
76124;BME280;65173;48.066;20.976;2022-12-18T06:00:24;102258.56;;;-1.93;87.33
76124;BME280;65173;48.066;20.976;2022-12-18T06:03:27;102269.03;;;-1.93;87.09
76124;BME280;65173;48.066;20.976;2022-12-18T06:06:35;102267.06;;;-2.06;87.42
76124;BME280;65173;48.066;20.976;2022-12-18T06:09:38;102272.91;;;-2.19;87.79
76124;BME280;65173;48.066;20.976;2022-12-18T06:12:41;102278.22;;;-2.12;87.86
76124;BME280;65173;48.066;20.976;2022-12-18T06:15:43;102288.47;;;-2.25;88.65
76124;BME280;65173;48.066;20.976;2022-12-18T06:18:46;102283.72;;;-2.22;88.88
76124;BME280;65173;48.066;20.976;2022-12-18T06:21:49;102290.22;;;-2.18;89.34
76124;BME280;65173;48.066;20.976;2022-12-18T06:24:53;102289.13;;;-2.08;89.73
76124;BME280;65173;48.066;20.976;2022-12-18T06:27:56;102295.63;;;-1.90;89.35
76124;BME280;65173;48.066;20.976;2022-12-18T06:30:58;102303.19;;;-1.95;88.93
76124;BME280;65173;48.066;20.976;2022-12-18T06:34:03;102312.22;;;-1.97;89.40
76124;BME280;65173;48.066;20.976;2022-12-18T06:37:06;102309.31;;;-1.88;89.70
76124;BME280;65173;48.066;20.976;2022-12-18T06:40:09;102312.75;;;-1.87;89.80
76124;BME280;65173;48.066;20.976;2022-12-18T06:43:12;102318.66;;;-1.79;89.60
76124;BME280;65173;48.066;20.976;2022-12-18T06:46:15;102317.34;;;-1.89;89.83
76124;BME280;65173;48.066;20.976;2022-12-18T06:49:17;102322.84;;;-1.84;89.69
76124;BME280;65173;48.066;20.976;2022-12-18T06:52:20;102326.50;;;-1.79;89.55
76124;BME280;65173;48.066;20.976;2022-12-18T06:55:23;102329.50;;;-1.67;89.77
76124;BME280;65173;48.066;20.976;2022-12-18T06:58:28;102335.69;;;-1.53;89.34
76124;BME280;65173;48.066;20.976;2022-12-18T07:01:30;102351.84;;;-1.50;88.93
76124;BME280;65173;48.066;20.976;2022-12-18T07:04:54;102351.19;;;-1.37;88.36
76124;BME280;65173;48.066;20.976;2022-12-18T07:07:57;102364.09;;;-1.35;87.74
76124;BME280;65173;48.066;20.976;2022-12-18T07:11:03;102368.50;;;-1.36;87.99
76124;BME280;65173;48.066;20.976;2022-12-18T07:14:06;102369.59;;;-1.30;87.26
76124;BME280;65173;48.066;20.976;2022-12-18T07:17:09;102376.69;;;-1.24;87.43
76124;BME280;65173;48.066;20.976;2022-12-18T07:20:12;102380.47;;;-1.12;87.26
76124;BME280;65173;48.066;20.976;2022-12-18T07:23:15;102390.72;;;-0.96;86.10
76124;BME280;65173;48.066;20.976;2022-12-18T07:26:19;102391.31;;;-0.58;83.48
76124;BME280;65173;48.066;20.976;2022-12-18T07:29:23;102395.13;;;-0.60;83.09
76124;BME280;65173;48.066;20.976;2022-12-18T07:32:26;102398.47;;;-0.66;82.79
76124;BME280;65173;48.066;20.976;2022-12-18T07:35:33;102389.41;;;-0.85;81.92
76124;BME280;65173;48.066;20.976;2022-12-18T07:38:47;102407.81;;;-0.79;81.98
76124;BME280;65173;48.066;20.976;2022-12-18T07:41:50;102412.59;;;-0.82;81.12
76124;BME280;65173;48.066;20.976;2022-12-18T07:45:14;102412.75;;;-0.90;81.08
76124;BME280;65173;48.066;20.976;2022-12-18T07:48:18;102421.19;;;-0.74;81.43
76124;BME280;65173;48.066;20.976;2022-12-18T07:51:21;102423.97;;;-0.75;79.58
76124;BME280;65173;48.066;20.976;2022-12-18T07:54:24;102422.00;;;-0.73;77.89
76124;BME280;65173;48.066;20.976;2022-12-18T07:57:27;102432.78;;;-0.61;78.46
76124;BME280;65173;48.066;20.976;2022-12-18T08:00:50;102433.63;;;-0.76;77.98
76124;BME280;65173;48.066;20.976;2022-12-18T08:03:53;102439.47;;;-0.59;77.76
76124;BME280;65173;48.066;20.976;2022-12-18T08:06:55;102433.31;;;-0.66;78.46
76124;BME280;65173;48.066;20.976;2022-12-18T08:09:58;102430.25;;;-0.70;78.36
76124;BME280;65173;48.066;20.976;2022-12-18T08:13:01;102446.59;;;-0.67;77.39
76124;BME280;65173;48.066;20.976;2022-12-18T08:16:07;102442.72;;;-0.57;78.42
76124;BME280;65173;48.066;20.976;2022-12-18T08:19:10;102448.59;;;-0.70;77.58
76124;BME280;65173;48.066;20.976;2022-12-18T08:22:12;102453.47;;;-0.66;78.52
76124;BME280;65173;48.066;20.976;2022-12-18T08:25:15;102446.19;;;-0.28;76.86
76124;BME280;65173;48.066;20.976;2022-12-18T08:28:18;102452.88;;;-0.05;76.04
76124;BME280;65173;48.066;20.976;2022-12-18T08:31:21;102457.88;;;0.18;74.79
76124;BME280;65173;48.066;20.976;2022-12-18T08:34:25;102452.69;;;0.53;74.59
76124;BME280;65173;48.066;20.976;2022-12-18T08:37:29;102470.91;;;1.09;72.33
76124;BME280;65173;48.066;20.976;2022-12-18T08:40:31;102465.75;;;2.87;68.14
76124;BME280;65173;48.066;20.976;2022-12-18T08:43:34;102471.13;;;2.40;65.23
76124;BME280;65173;48.066;20.976;2022-12-18T08:46:56;102467.72;;;2.14;67.21
76124;BME280;65173;48.066;20.976;2022-12-18T08:49:58;102483.63;;;1.59;68.41
76124;BME280;65173;48.066;20.976;2022-12-18T08:53:01;102491.03;;;1.36;71.29
76124;BME280;65173;48.066;20.976;2022-12-18T08:56:05;102501.84;;;1.13;71.07
76124;BME280;65173;48.066;20.976;2022-12-18T08:59:08;102506.50;;;1.11;72.14
76124;BME280;65173;48.066;20.976;2022-12-18T09:02:20;102505.25;;;1.00;71.91
76124;BME280;65173;48.066;20.976;2022-12-18T09:05:23;102495.69;;;0.86;71.43
76124;BME280;65173;48.066;20.976;2022-12-18T09:08:26;102502.63;;;0.73;73.24
76124;BME280;65173;48.066;20.976;2022-12-18T09:11:29;102508.63;;;0.88;71.36
76124;BME280;65173;48.066;20.976;2022-12-18T09:14:33;102512.75;;;0.76;72.17
76124;BME280;65173;48.066;20.976;2022-12-18T09:17:35;102517.56;;;0.65;72.07
76124;BME280;65173;48.066;20.976;2022-12-18T09:20:39;102520.09;;;0.52;71.65
76124;BME280;65173;48.066;20.976;2022-12-18T09:23:41;102524.72;;;0.50;72.53
76124;BME280;65173;48.066;20.976;2022-12-18T09:26:44;102523.31;;;0.54;71.39
76124;BME280;65173;48.066;20.976;2022-12-18T09:29:49;102528.34;;;0.49;73.13
76124;BME280;65173;48.066;20.976;2022-12-18T09:32:53;102536.06;;;0.57;72.47
76124;BME280;65173;48.066;20.976;2022-12-18T09:35:56;102530.78;;;0.51;71.99
76124;BME280;65173;48.066;20.976;2022-12-18T09:38:59;102536.25;;;0.56;73.12
76124;BME280;65173;48.066;20.976;2022-12-18T09:42:18;102535.22;;;0.50;74.28
76124;BME280;65173;48.066;20.976;2022-12-18T09:45:23;102537.84;;;0.50;71.62
76124;BME280;65173;48.066;20.976;2022-12-18T09:48:35;102533.59;;;0.49;73.22
76124;BME280;65173;48.066;20.976;2022-12-18T09:51:45;102539.28;;;0.53;72.61
76124;BME280;65173;48.066;20.976;2022-12-18T09:55:05;102545.31;;;0.53;72.78
76124;BME280;65173;48.066;20.976;2022-12-18T10:01:27;102539.53;;;0.64;73.12
76124;BME280;65173;48.066;20.976;2022-12-18T10:04:53;102538.25;;;0.54;73.19
76124;BME280;65173;48.066;20.976;2022-12-18T10:08:07;102537.53;;;0.66;72.46
76124;BME280;65173;48.066;20.976;2022-12-18T10:18:39;102533.59;;;0.49;74.68
76124;BME280;65173;48.066;20.976;2022-12-18T10:22:14;102525.84;;;0.41;72.40
76124;BME280;65173;48.066;20.976;2022-12-18T10:25:30;102524.88;;;0.21;75.12
76124;BME280;65173;48.066;20.976;2022-12-18T10:28:38;102521.75;;;0.32;76.60
76124;BME280;65173;48.066;20.976;2022-12-18T10:31:42;102518.16;;;0.40;74.53
76124;BME280;65173;48.066;20.976;2022-12-18T10:34:47;102515.22;;;0.49;74.46
76124;BME280;65173;48.066;20.976;2022-12-18T10:38:19;102516.22;;;0.48;74.66
76124;BME280;65173;48.066;20.976;2022-12-18T10:41:25;102526.75;;;0.55;73.50
76124;BME280;65173;48.066;20.976;2022-12-18T10:44:34;102545.53;;;-0.12;75.13
76124;BME280;65173;48.066;20.976;2022-12-18T10:47:42;102535.38;;;-0.22;75.20
76124;BME280;65173;48.066;20.976;2022-12-18T10:50:48;102540.28;;;-0.12;75.07
76124;BME280;65173;48.066;20.976;2022-12-18T10:54:18;102537.84;;;0.08;74.77
76124;BME280;65173;48.066;20.976;2022-12-18T10:57:33;102536.91;;;0.37;73.24
76124;BME280;65173;48.066;20.976;2022-12-18T11:00:36;102533.41;;;0.51;73.37
76124;BME280;65173;48.066;20.976;2022-12-18T11:03:42;102528.28;;;0.43;71.72
76124;BME280;65173;48.066;20.976;2022-12-18T11:07:00;102520.03;;;0.46;73.01
76124;BME280;65173;48.066;20.976;2022-12-18T11:10:04;102526.75;;;0.27;73.53
76124;BME280;65173;48.066;20.976;2022-12-18T11:13:15;102526.56;;;0.28;74.57
76124;BME280;65173;48.066;20.976;2022-12-18T11:16:19;102515.91;;;0.37;74.00
76124;BME280;65173;48.066;20.976;2022-12-18T11:19:36;102521.59;;;0.40;70.67
76124;BME280;65173;48.066;20.976;2022-12-18T11:22:39;102517.69;;;0.29;74.61
76124;BME280;65173;48.066;20.976;2022-12-18T11:25:51;102523.09;;;0.49;72.79
76124;BME280;65173;48.066;20.976;2022-12-18T11:29:09;102529.97;;;0.50;70.47
76124;BME280;65173;48.066;20.976;2022-12-18T11:32:34;102521.75;;;0.60;68.96
76124;BME280;65173;48.066;20.976;2022-12-18T11:35:50;102515.31;;;0.34;70.79
76124;BME280;65173;48.066;20.976;2022-12-18T11:38:55;102517.72;;;0.36;71.05
76124;BME280;65173;48.066;20.976;2022-12-18T11:42:09;102521.28;;;0.50;71.87
76124;BME280;65173;48.066;20.976;2022-12-18T11:45:21;102517.84;;;0.49;71.61
76124;BME280;65173;48.066;20.976;2022-12-18T11:48:36;102509.44;;;0.60;71.96
76124;BME280;65173;48.066;20.976;2022-12-18T11:51:49;102519.19;;;0.66;72.93
76124;BME280;65173;48.066;20.976;2022-12-18T11:54:58;102513.88;;;0.60;72.10
76124;BME280;65173;48.066;20.976;2022-12-18T12:04:59;102502.41;;;0.40;72.29
76124;BME280;65173;48.066;20.976;2022-12-18T12:08:41;102502.13;;;0.56;71.97
76124;BME280;65173;48.066;20.976;2022-12-18T12:15:10;102513.94;;;0.66;72.02
76124;BME280;65173;48.066;20.976;2022-12-18T12:35:04;102508.19;;;0.56;72.33
76124;BME280;65173;48.066;20.976;2022-12-18T12:38:12;102506.56;;;0.55;73.23
76124;BME280;65173;48.066;20.976;2022-12-18T12:41:20;102501.19;;;0.63;72.42
76124;BME280;65173;48.066;20.976;2022-12-18T12:44:47;102505.81;;;0.61;72.66
76124;BME280;65173;48.066;20.976;2022-12-18T12:47:58;102497.44;;;0.79;71.35
76124;BME280;65173;48.066;20.976;2022-12-18T12:51:12;102510.00;;;0.84;71.01
76124;BME280;65173;48.066;20.976;2022-12-18T12:54:21;102518.88;;;1.24;70.38
76124;BME280;65173;48.066;20.976;2022-12-18T12:57:39;102524.53;;;1.27;68.45
76124;BME280;65173;48.066;20.976;2022-12-18T13:00:56;102541.50;;;1.72;66.94
76124;BME280;65173;48.066;20.976;2022-12-18T13:04:16;102524.94;;;1.98;65.83
76124;BME280;65173;48.066;20.976;2022-12-18T13:07:29;102529.78;;;2.74;65.24
76124;BME280;65173;48.066;20.976;2022-12-18T13:10:41;102524.41;;;3.65;64.23
76124;BME280;65173;48.066;20.976;2022-12-18T13:20:21;102531.16;;;4.17;60.06
76124;BME280;65173;48.066;20.976;2022-12-18T13:23:36;102544.16;;;3.87;61.51
76124;BME280;65173;48.066;20.976;2022-12-18T13:26:43;102557.94;;;3.58;61.42
76124;BME280;65173;48.066;20.976;2022-12-18T13:29:46;102560.34;;;2.88;63.25
76124;BME280;65173;48.066;20.976;2022-12-18T13:36:29;102575.53;;;2.00;65.52
76124;BME280;65173;48.066;20.976;2022-12-18T13:39:34;102584.97;;;1.82;66.00
76124;BME280;65173;48.066;20.976;2022-12-18T13:42:38;102583.34;;;1.74;67.99
76124;BME280;65173;48.066;20.976;2022-12-18T13:52:39;102605.34;;;1.60;68.77
76124;BME280;65173;48.066;20.976;2022-12-18T13:55:44;102601.25;;;1.51;68.93
76124;BME280;65173;48.066;20.976;2022-12-18T13:59:25;102625.84;;;1.36;69.79
76124;BME280;65173;48.066;20.976;2022-12-18T14:02:29;102612.94;;;1.07;69.05
76124;BME280;65173;48.066;20.976;2022-12-18T14:05:36;102612.84;;;0.94;71.75
76124;BME280;65173;48.066;20.976;2022-12-18T14:08:43;102625.59;;;0.97;72.87
76124;BME280;65173;48.066;20.976;2022-12-18T14:11:48;102621.25;;;0.83;71.83
76124;BME280;65173;48.066;20.976;2022-12-18T14:14:56;102619.28;;;0.63;73.11
76124;BME280;65173;48.066;20.976;2022-12-18T14:21:28;102628.13;;;0.62;73.07
76124;BME280;65173;48.066;20.976;2022-12-18T14:24:32;102630.47;;;0.51;72.47
76124;BME280;65173;48.066;20.976;2022-12-18T14:27:41;102629.09;;;0.33;74.27
76124;BME280;65173;48.066;20.976;2022-12-18T14:30:46;102626.31;;;0.20;74.43
76124;BME280;65173;48.066;20.976;2022-12-18T14:34:03;102635.81;;;0.21;74.20
76124;BME280;65173;48.066;20.976;2022-12-18T14:37:10;102631.75;;;0.19;74.19
76124;BME280;65173;48.066;20.976;2022-12-18T14:40:14;102626.81;;;0.09;74.93
76124;BME280;65173;48.066;20.976;2022-12-18T14:43:17;102627.03;;;-0.07;75.21
76124;BME280;65173;48.066;20.976;2022-12-18T14:46:42;102630.94;;;-0.18;75.57
76124;BME280;65173;48.066;20.976;2022-12-18T14:50:02;102639.28;;;-0.29;76.30
76124;BME280;65173;48.066;20.976;2022-12-18T14:53:20;102639.91;;;-0.27;76.82
76124;BME280;65173;48.066;20.976;2022-12-18T14:56:37;102638.81;;;-0.32;76.82
76124;BME280;65173;48.066;20.976;2022-12-18T14:59:52;102644.34;;;-0.27;76.97
76124;BME280;65173;48.066;20.976;2022-12-18T15:03:13;102640.56;;;-0.40;77.56
76124;BME280;65173;48.066;20.976;2022-12-18T15:06:29;102638.03;;;-0.48;78.16
76124;BME280;65173;48.066;20.976;2022-12-18T15:09:34;102642.81;;;-0.37;78.14
76124;BME280;65173;48.066;20.976;2022-12-18T15:13:08;102645.19;;;-0.56;78.63
76124;BME280;65173;48.066;20.976;2022-12-18T15:16:20;102650.94;;;-0.76;80.13
76124;BME280;65173;48.066;20.976;2022-12-18T15:19:41;102656.66;;;-0.72;79.57
76124;BME280;65173;48.066;20.976;2022-12-18T15:23:00;102666.91;;;-0.71;79.94
76124;BME280;65173;48.066;20.976;2022-12-18T15:26:08;102661.50;;;-0.69;80.17
76124;BME280;65173;48.066;20.976;2022-12-18T15:29:26;102671.44;;;-0.79;80.45
76124;BME280;65173;48.066;20.976;2022-12-18T15:32:35;102669.44;;;-0.77;80.37
76124;BME280;65173;48.066;20.976;2022-12-18T15:36:08;102666.38;;;-0.81;80.08
76124;BME280;65173;48.066;20.976;2022-12-18T15:39:37;102667.31;;;-1.11;82.06
76124;BME280;65173;48.066;20.976;2022-12-18T15:42:57;102677.78;;;-1.11;82.55
76124;BME280;65173;48.066;20.976;2022-12-18T15:46:23;102673.13;;;-1.24;82.36
76124;BME280;65173;48.066;20.976;2022-12-18T15:49:31;102671.28;;;-1.38;83.17
76124;BME280;65173;48.066;20.976;2022-12-18T15:52:46;102672.09;;;-1.37;83.54
76124;BME280;65173;48.066;20.976;2022-12-18T15:55:51;102680.56;;;-1.35;83.36
76124;BME280;65173;48.066;20.976;2022-12-18T15:59:28;102682.63;;;-1.46;83.89
76124;BME280;65173;48.066;20.976;2022-12-18T16:02:49;102695.22;;;-1.49;83.87
76124;BME280;65173;48.066;20.976;2022-12-18T16:05:54;102699.69;;;-1.58;83.74
76124;BME280;65173;48.066;20.976;2022-12-18T16:09:14;102699.91;;;-1.67;84.66
76124;BME280;65173;48.066;20.976;2022-12-18T16:12:32;102704.19;;;-1.75;85.02
76124;BME280;65173;48.066;20.976;2022-12-18T16:15:46;102714.13;;;-1.70;84.48
76124;BME280;65173;48.066;20.976;2022-12-18T16:19:12;102725.41;;;-1.69;85.68
76124;BME280;65173;48.066;20.976;2022-12-18T16:22:20;102726.88;;;-1.67;84.90
76124;BME280;65173;48.066;20.976;2022-12-18T16:25:39;102732.84;;;-1.58;84.65
76124;BME280;65173;48.066;20.976;2022-12-18T16:28:56;102734.47;;;-1.57;84.67
76124;BME280;65173;48.066;20.976;2022-12-18T16:32:02;102738.44;;;-1.61;84.37
76124;BME280;65173;48.066;20.976;2022-12-18T16:35:21;102729.81;;;-1.70;84.27
76124;BME280;65173;48.066;20.976;2022-12-18T16:38:28;102744.03;;;-1.64;84.26
76124;BME280;65173;48.066;20.976;2022-12-18T16:41:36;102753.00;;;-1.67;84.20
76124;BME280;65173;48.066;20.976;2022-12-18T16:44:53;102754.16;;;-1.69;84.57
76124;BME280;65173;48.066;20.976;2022-12-18T16:48:12;102740.63;;;-1.73;84.38
76124;BME280;65173;48.066;20.976;2022-12-18T16:51:31;102755.31;;;-1.72;84.49
76124;BME280;65173;48.066;20.976;2022-12-18T16:54:55;102756.28;;;-1.73;85.67
76124;BME280;65173;48.066;20.976;2022-12-18T16:57:58;102763.47;;;-1.67;84.83
76124;BME280;65173;48.066;20.976;2022-12-18T17:01:07;102760.53;;;-1.72;85.01
76124;BME280;65173;48.066;20.976;2022-12-18T17:04:10;102757.16;;;-1.81;85.08
76124;BME280;65173;48.066;20.976;2022-12-18T17:07:15;102755.88;;;-1.85;84.85
76124;BME280;65173;48.066;20.976;2022-12-18T17:10:18;102759.31;;;-1.92;84.85
76124;BME280;65173;48.066;20.976;2022-12-18T17:13:25;102756.75;;;-2.00;85.34
76124;BME280;65173;48.066;20.976;2022-12-18T17:16:28;102771.13;;;-2.04;85.43
76124;BME280;65173;48.066;20.976;2022-12-18T17:19:31;102775.53;;;-2.13;85.42
76124;BME280;65173;48.066;20.976;2022-12-18T17:22:33;102776.41;;;-2.21;86.84
76124;BME280;65173;48.066;20.976;2022-12-18T17:25:38;102780.47;;;-2.26;86.25
76124;BME280;65173;48.066;20.976;2022-12-18T17:28:41;102788.34;;;-2.42;88.11
76124;BME280;65173;48.066;20.976;2022-12-18T17:31:45;102793.25;;;-2.39;87.41